Time;durP1;ratioP1;P1;durP2;ratioP2;P2;SDS_P1;SDS_P2;PMS_P1;PMS_P2;Temp;Humidity;BMP_temperature;BMP_pressure;BME280_temperature;BME280_humidity;BME280_pressure;Samples;Min_cycle;Max_cycle;Signal;HPM_P1;HPM_P2
2022/07/28 00:02:18;;;;;;;0.70;0.70;;;21.50;99.90;;;;;;5000401;28;20296;-63
2022/07/28 00:04:46;;;;;;;0.70;0.70;;;21.40;99.90;;;;;;5004472;28;20300;-63
2022/07/28 00:07:12;;;;;;;0.90;0.90;;;21.30;99.90;;;;;;5001874;28;20209;-68
2022/07/28 00:09:41;;;;;;;0.70;0.70;;;21.20;99.90;;;;;;5004262;28;20209;-63
2022/07/28 00:12:08;;;;;;;0.70;0.63;;;21.20;99.90;;;;;;4993510;28;20301;-61
2022/07/28 00:14:35;;;;;;;0.63;0.63;;;21.20;99.90;;;;;;4992045;28;20291;-61
2022/07/28 00:17:02;;;;;;;0.90;0.90;;;21.10;99.90;;;;;;5003100;28;20606;-61
2022/07/28 00:19:29;;;;;;;0.60;0.60;;;21.10;99.90;;;;;;5004151;28;20218;-61
2022/07/28 00:21:55;;;;;;;0.68;0.68;;;21.00;99.90;;;;;;5002592;28;20208;-61
2022/07/28 00:24:23;;;;;;;0.80;0.80;;;21.00;99.90;;;;;;5003341;28;20197;-61
2022/07/28 00:26:51;;;;;;;0.93;0.90;;;20.90;99.90;;;;;;5004567;28;20672;-60
2022/07/28 00:29:18;;;;;;;0.57;0.57;;;20.90;99.90;;;;;;5003101;28;20244;-61
2022/07/28 00:31:45;;;;;;;0.68;0.68;;;20.90;99.90;;;;;;5002972;28;20671;-61
2022/07/28 00:34:12;;;;;;;0.53;0.53;;;20.90;99.90;;;;;;5001781;28;20216;-61
2022/07/28 00:36:39;;;;;;;0.77;0.77;;;20.90;99.90;;;;;;5004072;28;20198;-61
2022/07/28 00:39:06;;;;;;;0.70;0.70;;;20.80;99.90;;;;;;5002112;28;20743;-61
2022/07/28 00:41:33;;;;;;;0.60;0.60;;;20.80;99.90;;;;;;5003595;28;20211;-61
2022/07/28 00:44:01;;;;;;;0.65;0.65;;;20.80;99.90;;;;;;5003459;28;20210;-59
2022/07/28 00:46:28;;;;;;;1.00;1.00;;;20.80;99.90;;;;;;5003603;28;20227;-61
2022/07/28 00:48:55;;;;;;;0.93;0.83;;;20.70;99.90;;;;;;5002495;28;20698;-61
2022/07/28 00:51:23;;;;;;;0.70;0.70;;;20.60;99.90;;;;;;5003057;28;20623;-60
2022/07/28 00:53:51;;;;;;;0.80;0.70;;;20.60;99.90;;;;;;5003272;28;20198;-60
2022/07/28 00:56:18;;;;;;;0.70;0.70;;;20.60;99.90;;;;;;5002808;28;20664;-60
2022/07/28 00:58:46;;;;;;;0.60;0.60;;;20.60;99.90;;;;;;5003275;28;20229;-60
2022/07/28 01:01:18;;;;;;;0.67;0.67;;;20.50;99.90;;;;;;5003556;28;20265;-60
2022/07/28 01:03:48;;;;;;;0.70;0.70;;;20.60;99.90;;;;;;5007088;28;20243;-60
2022/07/28 01:06:42;;;;;;;0.70;0.70;;;20.60;99.90;;;;;;5005437;28;20844;-60
2022/07/28 01:09:18;;;;;;;0.50;0.50;;;20.60;99.90;;;;;;5037828;22;20238;-65
2022/07/28 01:11:54;;;;;;;0.70;0.70;;;20.60;99.90;;;;;;5035471;28;20254;-66
2022/07/28 01:14:29;;;;;;;0.80;0.80;;;20.60;99.90;;;;;;5038970;28;20307;-65
2022/07/28 01:17:05;;;;;;;0.77;0.77;;;20.50;99.90;;;;;;5032098;28;20739;-65
2022/07/28 01:19:41;;;;;;;1.07;0.80;;;20.50;99.90;;;;;;5026608;28;20274;-65
2022/07/28 01:22:12;;;;;;;0.77;0.77;;;20.50;99.90;;;;;;5033904;28;20295;-65
2022/07/28 01:24:49;;;;;;;0.73;0.73;;;20.40;99.90;;;;;;5034474;28;20303;-66
2022/07/28 01:27:35;;;;;;;0.68;0.68;;;20.40;99.90;;;;;;5034377;28;20247;-66
2022/07/28 01:30:07;;;;;;;0.80;0.80;;;20.40;99.90;;;;;;5029880;28;20225;-67
2022/07/28 01:32:41;;;;;;;0.90;0.88;;;20.40;99.90;;;;;;5034510;28;20287;-65
2022/07/28 01:35:12;;;;;;;0.70;0.70;;;20.30;99.90;;;;;;5034711;28;20797;-65
2022/07/28 01:37:44;;;;;;;0.77;0.77;;;20.30;99.90;;;;;;5034809;28;20228;-65
2022/07/28 01:40:15;;;;;;;0.95;0.95;;;20.30;99.90;;;;;;5034208;28;20220;-67
2022/07/28 01:42:45;;;;;;;0.70;0.70;;;20.20;99.90;;;;;;5033702;28;20200;-66
2022/07/28 01:45:15;;;;;;;0.90;0.90;;;20.20;99.90;;;;;;5026200;28;20208;-65
2022/07/28 01:47:46;;;;;;;0.77;0.77;;;20.20;99.90;;;;;;5034071;28;20654;-65
2022/07/28 01:50:16;;;;;;;0.60;0.60;;;20.30;99.90;;;;;;5034392;28;20632;-65
2022/07/28 01:52:46;;;;;;;0.80;0.80;;;20.20;99.90;;;;;;5036189;28;20319;-65
2022/07/28 01:55:14;;;;;;;0.85;0.85;;;20.20;99.90;;;;;;5034020;28;20208;-65
2022/07/28 01:57:42;;;;;;;1.13;0.80;;;20.20;99.90;;;;;;5034390;28;20296;-66
2022/07/28 02:00:12;;;;;;;0.80;0.80;;;20.00;99.90;;;;;;5034274;28;20241;-65
2022/07/28 02:02:42;;;;;;;0.77;0.73;;;20.10;99.90;;;;;;5034709;28;20292;-65
2022/07/28 02:05:14;;;;;;;0.70;0.70;;;20.10;99.90;;;;;;5040639;28;20209;-64
2022/07/28 02:07:43;;;;;;;0.83;0.83;;;20.20;99.90;;;;;;5040509;28;20292;-67
2022/07/28 02:10:12;;;;;;;0.77;0.77;;;20.10;99.90;;;;;;5041693;28;20263;-68
2022/07/28 02:12:40;;;;;;;0.77;0.77;;;20.00;99.90;;;;;;5036256;28;20636;-66
2022/07/28 02:15:10;;;;;;;1.55;1.00;;;20.10;99.90;;;;;;5044419;28;20207;-66
2022/07/28 02:17:38;;;;;;;0.70;0.70;;;20.20;99.90;;;;;;5044025;28;20215;-67
2022/07/28 02:20:08;;;;;;;0.70;0.70;;;20.10;99.90;;;;;;5040828;28;20311;-68
2022/07/28 02:22:37;;;;;;;0.85;0.75;;;20.00;99.90;;;;;;5036185;28;20200;-66
2022/07/28 02:25:06;;;;;;;0.55;0.55;;;20.10;99.90;;;;;;5034230;28;20209;-66
2022/07/28 02:27:36;;;;;;;0.70;0.70;;;20.00;99.90;;;;;;5033600;28;20201;-66
2022/07/28 02:30:07;;;;;;;0.70;0.70;;;20.00;99.90;;;;;;5033542;28;20238;-67
2022/07/28 02:32:39;;;;;;;0.70;0.70;;;20.00;99.90;;;;;;5033270;28;20673;-66
2022/07/28 02:35:12;;;;;;;0.75;0.75;;;19.90;99.90;;;;;;5032917;28;20291;-67
2022/07/28 02:37:45;;;;;;;0.70;0.70;;;19.90;99.90;;;;;;5027770;28;20633;-66
2022/07/28 02:40:15;;;;;;;0.63;0.63;;;19.80;99.90;;;;;;5035165;28;20315;-66
2022/07/28 02:42:44;;;;;;;0.60;0.60;;;19.50;99.90;;;;;;5033300;28;20232;-66
2022/07/28 02:45:12;;;;;;;0.95;0.82;;;19.30;99.90;;;;;;5033393;28;20287;-67
2022/07/28 02:47:44;;;;;;;0.65;0.65;;;19.30;99.90;;;;;;5036219;28;20953;-67
2022/07/28 02:50:14;;;;;;;0.70;0.70;;;19.30;99.90;;;;;;5034775;28;20236;-66
2022/07/28 02:52:45;;;;;;;0.70;0.70;;;19.30;99.90;;;;;;5029974;28;20227;-65
2022/07/28 02:55:15;;;;;;;0.70;0.70;;;19.30;99.90;;;;;;5036669;28;20208;-67
2022/07/28 02:57:45;;;;;;;0.70;0.70;;;19.50;99.90;;;;;;5036873;28;20207;-67
2022/07/28 03:00:13;;;;;;;0.65;0.65;;;19.60;99.90;;;;;;5043887;28;20692;-66
2022/07/28 03:02:45;;;;;;;0.85;0.85;;;19.60;99.90;;;;;;5035266;28;20287;-67
2022/07/28 03:05:14;;;;;;;1.35;0.98;;;19.50;99.90;;;;;;5035270;28;20211;-65
2022/07/28 03:07:43;;;;;;;0.98;0.98;;;19.50;99.90;;;;;;5041454;28;20292;-65
2022/07/28 03:10:19;;;;;;;0.63;0.63;;;19.50;99.90;;;;;;5034863;28;20395;-67
2022/07/28 03:12:46;;;;;;;0.73;0.73;;;19.50;99.90;;;;;;5040482;28;20196;-65
2022/07/28 03:15:13;;;;;;;0.70;0.70;;;19.70;99.90;;;;;;5035782;28;20204;-64
2022/07/28 03:17:40;;;;;;;0.50;0.50;;;19.70;99.90;;;;;;5035161;28;20227;-67
2022/07/28 03:20:08;;;;;;;0.47;0.47;;;19.60;99.90;;;;;;5032997;28;20316;-65
2022/07/28 03:22:35;;;;;;;1.07;0.67;;;19.50;99.90;;;;;;5032364;28;20216;-67
2022/07/28 03:25:06;;;;;;;0.80;0.80;;;19.40;99.90;;;;;;5040259;28;20329;-67
2022/07/28 03:27:38;;;;;;;0.47;0.47;;;19.50;99.90;;;;;;5032678;28;20200;-66
2022/07/28 03:30:07;;;;;;;0.70;0.70;;;19.50;99.90;;;;;;5032377;28;20259;-67
2022/07/28 03:32:38;;;;;;;0.85;0.80;;;19.50;99.90;;;;;;5032484;28;20284;-67
2022/07/28 03:35:06;;;;;;;0.90;0.90;;;19.70;99.90;;;;;;5032767;28;20208;-67
2022/07/28 03:37:38;;;;;;;0.60;0.60;;;19.60;99.90;;;;;;5025526;28;20265;-67
2022/07/28 03:40:11;;;;;;;0.90;0.90;;;19.50;99.90;;;;;;5032166;28;20252;-65
2022/07/28 03:42:38;;;;;;;0.60;0.60;;;19.30;99.90;;;;;;5027226;28;20282;-65
2022/07/28 03:45:06;;;;;;;0.80;0.80;;;19.20;99.90;;;;;;5033262;28;20200;-66
2022/07/28 03:47:33;;;;;;;1.47;0.60;;;19.20;99.90;;;;;;5038786;28;20204;-65
2022/07/28 03:50:00;;;;;;;0.75;0.75;;;19.20;99.90;;;;;;5036244;28;20225;-65
2022/07/28 03:52:27;;;;;;;0.80;0.80;;;19.10;99.90;;;;;;5042708;28;20200;-67
2022/07/28 03:54:54;;;;;;;1.13;0.83;;;19.10;99.90;;;;;;5047834;28;20228;-66
2022/07/28 03:57:22;;;;;;;2.33;1.00;;;19.00;99.90;;;;;;5045105;28;20204;-66
2022/07/28 03:59:49;;;;;;;0.70;0.70;;;19.00;99.90;;;;;;5034514;28;20217;-65
2022/07/28 04:02:16;;;;;;;0.77;0.77;;;18.90;99.90;;;;;;5033940;28;20295;-65
2022/07/28 04:04:43;;;;;;;0.70;0.70;;;18.80;99.90;;;;;;5028621;28;20200;-66
2022/07/28 04:07:10;;;;;;;0.70;0.70;;;18.70;99.90;;;;;;5033560;28;20296;-66
2022/07/28 04:09:37;;;;;;;1.80;0.77;;;18.70;99.90;;;;;;5033508;28;20224;-65
2022/07/28 04:12:04;;;;;;;0.90;0.90;;;18.70;99.90;;;;;;5033728;28;20255;-67
2022/07/28 04:14:32;;;;;;;0.70;0.70;;;18.60;99.90;;;;;;5033769;28;20209;-65
2022/07/28 04:16:59;;;;;;;0.77;0.77;;;18.60;99.90;;;;;;5035848;28;20435;-68
2022/07/28 04:19:26;;;;;;;0.80;0.80;;;18.50;99.90;;;;;;5032528;28;20240;-67
2022/07/28 04:21:52;;;;;;;1.00;1.00;;;18.50;99.90;;;;;;5039128;28;20331;-66
2022/07/28 04:24:19;;;;;;;0.60;0.60;;;18.50;99.90;;;;;;5039669;28;20288;-66
2022/07/28 04:26:46;;;;;;;0.93;0.93;;;18.50;99.90;;;;;;5033885;28;20291;-67
2022/07/28 04:29:13;;;;;;;0.90;0.90;;;18.50;99.90;;;;;;5033468;28;20259;-67
2022/07/28 04:31:41;;;;;;;0.80;0.80;;;18.50;99.90;;;;;;5033334;28;20203;-66
2022/07/28 04:34:08;;;;;;;1.00;1.00;;;18.50;99.90;;;;;;5032828;28;20213;-66
2022/07/28 04:36:40;;;;;;;0.90;0.90;;;18.50;99.90;;;;;;5036401;28;20662;-66
2022/07/28 04:39:09;;;;;;;2.67;1.07;;;18.40;99.90;;;;;;5038750;28;20227;-66
2022/07/28 04:41:36;;;;;;;0.70;0.70;;;18.40;99.90;;;;;;5038117;28;20543;-66
2022/07/28 04:44:04;;;;;;;2.30;0.90;;;18.40;99.90;;;;;;5035938;28;20196;-65
2022/07/28 04:46:30;;;;;;;1.10;1.00;;;18.50;99.90;;;;;;5040892;28;20291;-66
2022/07/28 04:48:59;;;;;;;0.82;0.80;;;18.50;99.90;;;;;;5045833;28;20273;-66
2022/07/28 04:51:26;;;;;;;0.87;0.87;;;18.60;99.90;;;;;;5025686;28;20208;-66
2022/07/28 04:53:53;;;;;;;1.07;1.07;;;18.60;99.90;;;;;;5043164;28;20214;-66
2022/07/28 04:56:19;;;;;;;0.83;0.83;;;18.60;99.90;;;;;;5040494;28;20208;-62
2022/07/28 04:58:46;;;;;;;0.87;0.87;;;18.60;99.90;;;;;;5044114;28;20220;-61
2022/07/28 05:01:13;;;;;;;0.80;0.80;;;18.80;99.90;;;;;;5035374;28;20221;-62
2022/07/28 05:03:40;;;;;;;0.80;0.80;;;18.90;99.90;;;;;;5044098;28;20267;-60
2022/07/28 05:06:09;;;;;;;0.90;0.90;;;19.10;99.90;;;;;;5037525;28;20284;-61
2022/07/28 05:08:35;;;;;;;0.90;0.90;;;19.20;99.90;;;;;;5034796;28;20235;-62
2022/07/28 05:11:02;;;;;;;1.13;1.02;;;19.30;99.90;;;;;;5034820;28;20211;-61
2022/07/28 05:13:29;;;;;;;0.63;0.63;;;19.40;99.90;;;;;;5035816;28;20295;-63
2022/07/28 05:15:56;;;;;;;0.90;0.90;;;19.40;99.90;;;;;;5024176;28;20215;-66
2022/07/28 05:18:23;;;;;;;1.13;1.10;;;19.40;99.90;;;;;;5035109;28;20307;-64
2022/07/28 05:20:50;;;;;;;0.93;0.88;;;19.40;99.90;;;;;;5029142;28;20279;-63
2022/07/28 05:23:18;;;;;;;0.85;0.85;;;19.40;99.90;;;;;;5029188;28;20205;-65
2022/07/28 05:25:46;;;;;;;0.75;0.75;;;19.40;99.90;;;;;;5028978;28;20660;-66
2022/07/28 05:28:12;;;;;;;1.08;0.98;;;19.50;99.90;;;;;;5032366;28;20240;-66
2022/07/28 05:30:39;;;;;;;0.80;0.80;;;19.60;99.90;;;;;;5030064;28;20256;-64
2022/07/28 05:33:06;;;;;;;0.90;0.90;;;19.60;99.90;;;;;;5031509;28;20236;-63
2022/07/28 05:35:33;;;;;;;0.90;0.90;;;19.70;99.90;;;;;;5028897;28;20610;-65
2022/07/28 05:38:00;;;;;;;1.00;0.90;;;19.80;99.90;;;;;;5032679;28;20679;-64
2022/07/28 05:40:28;;;;;;;0.90;0.90;;;19.90;99.90;;;;;;5035852;28;20283;-64
2022/07/28 05:42:55;;;;;;;0.87;0.87;;;20.10;99.90;;;;;;5035061;28;20205;-64
2022/07/28 05:45:22;;;;;;;1.00;0.93;;;20.20;99.90;;;;;;5029368;28;20302;-63
2022/07/28 05:47:51;;;;;;;1.00;1.00;;;20.30;99.90;;;;;;5035402;28;20209;-65
2022/07/28 05:50:20;;;;;;;0.87;0.87;;;20.30;99.90;;;;;;5041340;28;20225;-65
2022/07/28 05:52:47;;;;;;;1.20;1.10;;;20.40;99.90;;;;;;5033786;28;20228;-65
2022/07/28 05:55:16;;;;;;;1.63;1.23;;;20.50;99.90;;;;;;5028720;28;20205;-64
2022/07/28 05:57:44;;;;;;;1.20;1.10;;;20.50;99.90;;;;;;5041260;28;20208;-64
2022/07/28 06:00:14;;;;;;;1.70;0.95;;;20.60;99.90;;;;;;5045043;28;20244;-65
2022/07/28 06:02:45;;;;;;;1.60;1.08;;;20.60;99.90;;;;;;5047175;28;20379;-64
2022/07/28 06:05:14;;;;;;;0.90;0.85;;;20.70;99.90;;;;;;5044744;28;20209;-64
2022/07/28 06:07:41;;;;;;;0.80;0.80;;;20.60;99.90;;;;;;5043778;28;20221;-64
2022/07/28 06:10:09;;;;;;;0.90;0.90;;;20.40;99.90;;;;;;5036373;28;20661;-65
2022/07/28 06:12:41;;;;;;;0.80;0.80;;;20.40;99.90;;;;;;5034351;28;20250;-64
2022/07/28 06:15:13;;;;;;;0.90;0.88;;;20.50;99.90;;;;;;5034440;28;20201;-64
2022/07/28 06:17:40;;;;;;;1.40;1.17;;;20.70;99.90;;;;;;5035043;28;20207;-64
2022/07/28 06:20:07;;;;;;;0.90;0.90;;;20.60;99.90;;;;;;5034878;28;20249;-63
2022/07/28 06:22:41;;;;;;;1.48;1.02;;;20.50;99.90;;;;;;5038649;28;20283;-64
2022/07/28 06:25:12;;;;;;;0.80;0.80;;;20.70;99.90;;;;;;5043066;28;20204;-66
2022/07/28 06:27:39;;;;;;;0.70;0.68;;;20.80;99.90;;;;;;5031614;28;20240;-65
2022/07/28 06:30:07;;;;;;;1.20;0.98;;;20.80;99.90;;;;;;5026510;28;20220;-65
2022/07/28 06:32:35;;;;;;;1.17;1.10;;;20.90;99.90;;;;;;5027408;28;20292;-64
2022/07/28 06:35:02;;;;;;;1.17;0.82;;;21.10;99.90;;;;;;5027778;28;20693;-65
2022/07/28 06:37:29;;;;;;;0.75;0.75;;;21.10;99.90;;;;;;5032698;28;20371;-64
2022/07/28 06:39:56;;;;;;;1.60;0.90;;;21.20;99.90;;;;;;5033390;28;20304;-65
2022/07/28 06:42:23;;;;;;;0.82;0.82;;;21.30;99.90;;;;;;5034222;28;20205;-65
2022/07/28 06:44:50;;;;;;;0.80;0.80;;;21.30;99.90;;;;;;5034541;28;20298;-64
2022/07/28 06:47:17;;;;;;;1.25;0.85;;;21.40;99.90;;;;;;5028819;28;20315;-65
2022/07/28 06:49:46;;;;;;;1.23;0.98;;;21.40;99.90;;;;;;5033024;28;20225;-66
2022/07/28 06:52:12;;;;;;;0.80;0.80;;;21.50;99.90;;;;;;5026965;28;20240;-64
2022/07/28 06:54:39;;;;;;;0.80;0.80;;;21.50;99.90;;;;;;5028309;28;20288;-64
2022/07/28 06:57:08;;;;;;;0.93;0.93;;;21.60;99.90;;;;;;5023366;28;20292;-64
2022/07/28 06:59:35;;;;;;;1.10;1.00;;;21.70;99.90;;;;;;5030930;28;20299;-64
2022/07/28 07:02:01;;;;;;;1.00;1.00;;;21.80;99.90;;;;;;5021942;28;20201;-65
2022/07/28 07:04:28;;;;;;;0.82;0.82;;;21.90;99.90;;;;;;5029047;28;20736;-66
2022/07/28 07:06:57;;;;;;;1.65;1.00;;;22.10;99.90;;;;;;5028794;28;20317;-63
2022/07/28 07:09:24;;;;;;;1.10;1.10;;;22.20;99.90;;;;;;5052788;22;20251;-59
2022/07/28 07:11:50;;;;;;;1.52;1.00;;;22.10;99.90;;;;;;5043113;28;20211;-59
2022/07/28 07:14:17;;;;;;;0.80;0.80;;;22.10;99.90;;;;;;5060192;28;20210;-62
2022/07/28 07:16:45;;;;;;;0.90;0.90;;;22.20;99.90;;;;;;5060618;28;20732;-60
2022/07/28 07:19:12;;;;;;;1.20;1.10;;;22.10;99.90;;;;;;5044105;28;20736;-61
2022/07/28 07:21:39;;;;;;;0.90;0.90;;;22.20;99.90;;;;;;5063687;28;20295;-60
2022/07/28 07:24:10;;;;;;;0.90;0.90;;;22.30;99.90;;;;;;5060984;28;20257;-62
2022/07/28 07:26:37;;;;;;;0.95;0.88;;;22.30;99.90;;;;;;5064679;28;20657;-63
2022/07/28 07:29:04;;;;;;;1.08;1.00;;;22.30;99.90;;;;;;5055012;28;20226;-63
2022/07/28 07:31:32;;;;;;;0.80;0.80;;;22.50;99.90;;;;;;5063510;28;20223;-66
2022/07/28 07:33:59;;;;;;;0.90;0.90;;;22.50;99.90;;;;;;5063255;28;20226;-63
2022/07/28 07:36:26;;;;;;;1.17;0.87;;;22.50;99.90;;;;;;5050030;28;20290;-63
2022/07/28 07:38:53;;;;;;;0.88;0.88;;;22.50;99.90;;;;;;5062103;28;20207;-63
2022/07/28 07:41:21;;;;;;;0.68;0.68;;;22.80;99.90;;;;;;5062603;28;20206;-63
2022/07/28 07:43:48;;;;;;;1.02;1.02;;;22.90;99.90;;;;;;5063758;28;20286;-62
2022/07/28 07:46:16;;;;;;;1.08;1.00;;;23.00;99.90;;;;;;5060779;28;20290;-63
2022/07/28 07:48:43;;;;;;;0.98;0.80;;;23.00;99.90;;;;;;5063430;28;20209;-63
2022/07/28 07:51:10;;;;;;;0.77;0.77;;;22.90;99.90;;;;;;5063507;28;20303;-61
2022/07/28 07:53:38;;;;;;;1.23;1.00;;;23.10;99.90;;;;;;5064093;28;20203;-63
2022/07/28 07:56:05;;;;;;;1.00;1.00;;;23.30;99.90;;;;;;5062282;28;20218;-61
2022/07/28 07:58:33;;;;;;;0.97;0.80;;;23.30;99.90;;;;;;5063565;28;20238;-61
2022/07/28 08:01:00;;;;;;;0.90;0.88;;;23.40;99.90;;;;;;5055432;28;20298;-61
2022/07/28 08:03:27;;;;;;;1.00;0.90;;;23.50;99.90;;;;;;5052058;28;20282;-62
2022/07/28 08:05:55;;;;;;;2.25;1.05;;;23.50;99.90;;;;;;5063330;28;20302;-63
2022/07/28 08:08:22;;;;;;;0.80;0.80;;;23.60;99.90;;;;;;5062996;28;20203;-63
2022/07/28 08:10:49;;;;;;;0.98;0.98;;;23.70;99.90;;;;;;5065075;28;20269;-61
2022/07/28 08:13:19;;;;;;;3.25;1.00;;;23.60;99.90;;;;;;5065588;28;20196;-62
2022/07/28 08:15:47;;;;;;;1.10;1.00;;;23.70;99.90;;;;;;5067262;28;20286;-61
2022/07/28 08:18:14;;;;;;;1.80;1.10;;;23.50;99.90;;;;;;5066460;28;20211;-61
2022/07/28 08:20:41;;;;;;;0.90;0.90;;;23.50;99.90;;;;;;5060756;28;20302;-62
2022/07/28 08:23:08;;;;;;;0.95;0.95;;;23.70;99.90;;;;;;5065936;28;20199;-61
2022/07/28 08:25:36;;;;;;;6.72;1.08;;;23.80;99.90;;;;;;5060207;28;20290;-61
2022/07/28 08:28:03;;;;;;;1.60;0.98;;;23.80;99.90;;;;;;5066940;28;20237;-61
2022/07/28 08:30:30;;;;;;;1.40;1.02;;;24.00;99.90;;;;;;5067065;28;20309;-61
2022/07/28 08:32:58;;;;;;;1.00;1.00;;;23.90;99.90;;;;;;5066741;28;20207;-62
2022/07/28 08:35:26;;;;;;;0.88;0.88;;;24.00;99.90;;;;;;5063759;28;20745;-60
2022/07/28 08:37:53;;;;;;;0.90;0.90;;;24.20;99.90;;;;;;5068596;28;20233;-61
2022/07/28 08:40:20;;;;;;;0.80;0.80;;;24.40;99.90;;;;;;5064405;28;20245;-61
2022/07/28 08:42:52;;;;;;;0.90;0.90;;;24.50;99.90;;;;;;5068444;28;20568;-61
2022/07/28 08:45:20;;;;;;;0.80;0.80;;;24.70;99.90;;;;;;5066272;28;20678;-61
2022/07/28 08:47:49;;;;;;;1.20;1.10;;;24.90;99.90;;;;;;5069205;28;20211;-61
2022/07/28 08:50:23;;;;;;;1.13;1.00;;;25.00;99.90;;;;;;5064673;28;20318;-62
2022/07/28 08:52:50;;;;;;;0.82;0.82;;;25.10;99.90;;;;;;5058043;28;20200;-62
2022/07/28 08:55:23;;;;;;;0.80;0.80;;;25.20;99.90;;;;;;5069575;28;20234;-62
2022/07/28 08:57:50;;;;;;;0.98;0.98;;;25.10;99.90;;;;;;5063166;28;20199;-62
2022/07/28 09:00:17;;;;;;;1.58;1.00;;;25.10;99.90;;;;;;5070236;28;20310;-62
2022/07/28 09:02:45;;;;;;;0.75;0.75;;;25.20;99.90;;;;;;5062322;28;20697;-61
2022/07/28 09:05:12;;;;;;;0.90;0.90;;;25.30;99.90;;;;;;5070716;28;20241;-62
2022/07/28 09:07:43;;;;;;;0.93;0.93;;;25.30;99.90;;;;;;5063505;28;20200;-62
2022/07/28 09:10:11;;;;;;;1.67;0.95;;;25.30;99.90;;;;;;5063879;28;20712;-62
2022/07/28 09:12:39;;;;;;;2.05;1.00;;;25.30;99.90;;;;;;5067314;28;20223;-62
2022/07/28 09:15:08;;;;;;;1.27;1.17;;;25.40;99.90;;;;;;5063646;28;20212;-61
2022/07/28 09:17:36;;;;;;;1.05;0.95;;;25.50;99.90;;;;;;5068221;28;20210;-62
2022/07/28 09:20:04;;;;;;;1.30;0.95;;;25.70;99.90;;;;;;5062868;28;20697;-62
2022/07/28 09:22:32;;;;;;;1.23;0.98;;;25.60;99.90;;;;;;5068598;28;20262;-60
2022/07/28 09:25:02;;;;;;;1.10;1.00;;;25.80;99.90;;;;;;5065645;28;20294;-61
2022/07/28 09:27:43;;;;;;;1.33;1.08;;;25.90;99.90;;;;;;5054807;28;20199;-60
2022/07/28 09:30:11;;;;;;;0.85;0.85;;;26.10;99.90;;;;;;5065249;28;20277;-61
2022/07/28 09:32:38;;;;;;;1.23;1.08;;;26.30;99.90;;;;;;5065760;28;20206;-61
2022/07/28 09:35:18;;;;;;;1.35;0.93;;;26.50;99.90;;;;;;5065364;28;20242;-61
2022/07/28 09:37:45;;;;;;;1.60;1.05;;;26.30;99.90;;;;;;5066350;28;20195;-61
2022/07/28 09:40:15;;;;;;;1.20;1.00;;;26.30;99.90;;;;;;5064219;28;20314;-61
2022/07/28 09:42:48;;;;;;;1.75;1.00;;;26.30;99.90;;;;;;5066249;28;20252;-61
2022/07/28 09:45:15;;;;;;;0.93;0.93;;;26.50;99.90;;;;;;5063997;28;20207;-61
2022/07/28 09:47:42;;;;;;;0.82;0.82;;;26.50;99.90;;;;;;5066769;28;20289;-61
2022/07/28 09:50:20;;;;;;;1.00;1.00;;;26.60;99.90;;;;;;5064373;28;20231;-62
2022/07/28 09:52:47;;;;;;;1.00;1.00;;;26.50;99.90;;;;;;5062468;28;20195;-61
2022/07/28 09:55:15;;;;;;;1.15;1.05;;;26.70;99.90;;;;;;5064040;28;20657;-62
2022/07/28 09:57:42;;;;;;;1.10;1.10;;;26.90;99.90;;;;;;5062460;28;20671;-62
2022/07/28 10:00:11;;;;;;;0.90;0.90;;;27.30;99.90;;;;;;5068831;28;20653;-61
2022/07/28 10:02:39;;;;;;;1.35;1.00;;;27.30;99.90;;;;;;5062636;28;20232;-60
2022/07/28 10:05:07;;;;;;;2.15;1.00;;;27.50;99.90;;;;;;5069987;28;20243;-62
2022/07/28 10:07:48;;;;;;;1.20;1.08;;;27.50;99.90;;;;;;5061967;28;20195;-61
2022/07/28 10:10:20;;;;;;;1.08;0.98;;;27.60;99.90;;;;;;5068021;28;20254;-61
2022/07/28 10:12:47;;;;;;;0.88;0.88;;;27.70;99.90;;;;;;5058260;28;20235;-61
2022/07/28 10:17:57;;;;;;;2.08;1.33;;;27.30;99.90;;;;;;5064712;28;20196;-60
2022/07/28 10:20:26;;;;;;;1.15;1.08;;;27.00;99.90;;;;;;5059501;28;20223;-62
2022/07/28 10:22:57;;;;;;;1.67;1.20;;;26.80;99.90;;;;;;5063537;28;20294;-61
2022/07/28 10:25:29;;;;;;;1.00;1.00;;;26.70;99.90;;;;;;5063380;28;20792;-60
2022/07/28 10:27:59;;;;;;;2.33;1.20;;;26.90;99.90;;;;;;5065436;28;20290;-62
2022/07/28 10:30:30;;;;;;;1.73;1.30;;;27.00;99.90;;;;;;5064133;28;20223;-63
2022/07/28 10:32:59;;;;;;;0.95;0.95;;;27.20;99.90;;;;;;5065287;28;20214;-63
2022/07/28 10:35:28;;;;;;;1.20;1.10;;;27.50;99.90;;;;;;5066884;28;20669;-62
2022/07/28 10:38:00;;;;;;;1.30;1.20;;;27.50;99.90;;;;;;5065408;28;20207;-62
2022/07/28 10:40:29;;;;;;;1.33;1.20;;;27.50;99.90;;;;;;5061567;28;20289;-62
2022/07/28 10:42:57;;;;;;;1.02;1.02;;;27.80;99.90;;;;;;5068069;28;20208;-61
2022/07/28 10:45:25;;;;;;;1.25;1.23;;;27.90;99.90;;;;;;5062853;28;20570;-62
2022/07/28 10:47:52;;;;;;;2.33;1.17;;;28.00;99.90;;;;;;5061962;28;20200;-63
2022/07/28 10:50:19;;;;;;;2.22;1.27;;;28.00;99.90;;;;;;5067528;28;20307;-63
2022/07/28 10:52:47;;;;;;;1.52;1.00;;;28.10;99.90;;;;;;5068452;28;20625;-62
2022/07/28 10:55:20;;;;;;;0.90;0.90;;;28.30;99.90;;;;;;5063413;28;20248;-60
2022/07/28 10:57:56;;;;;;;1.00;1.00;;;28.30;99.90;;;;;;5061598;28;20231;-61
2022/07/28 11:00:27;;;;;;;0.90;0.90;;;28.40;99.90;;;;;;5068282;28;20223;-62
2022/07/28 11:02:57;;;;;;;1.20;1.20;;;28.50;99.90;;;;;;5057349;28;20650;-61
2022/07/28 11:05:29;;;;;;;1.00;1.00;;;28.60;99.90;;;;;;5064009;28;20207;-64
2022/07/28 11:07:56;;;;;;;0.90;0.90;;;28.70;99.90;;;;;;5061638;28;20210;-63
2022/07/28 11:10:24;;;;;;;1.00;1.00;;;28.80;99.90;;;;;;5064174;28;20321;-62
2022/07/28 11:12:53;;;;;;;1.42;1.13;;;28.90;99.90;;;;;;5063832;28;20298;-63
2022/07/28 11:15:28;;;;;;;1.25;1.15;;;29.00;99.90;;;;;;5063436;28;20203;-63
2022/07/28 11:18:04;;;;;;;1.52;0.90;;;29.40;99.90;;;;;;5063071;28;20204;-63
2022/07/28 11:21:05;;;;;;;1.00;1.00;;;29.30;99.90;;;;;;5050117;28;20310;-60
2022/07/28 11:23:55;;;;;;;0.93;0.93;;;29.20;99.90;;;;;;5060688;28;20207;-62
2022/07/28 11:26:38;;;;;;;0.95;0.95;;;29.30;99.90;;;;;;5064794;28;20677;-63
2022/07/28 11:29:22;;;;;;;1.60;1.17;;;29.30;99.90;;;;;;5057788;28;20219;-62
2022/07/28 11:31:56;;;;;;;1.20;1.20;;;29.10;99.90;;;;;;5064480;28;20223;-63
2022/07/28 11:34:25;;;;;;;0.80;0.80;;;29.10;99.90;;;;;;5057322;28;20676;-63
2022/07/28 11:37:00;;;;;;;1.10;1.10;;;29.30;99.90;;;;;;5065497;28;20200;-63
2022/07/28 11:39:28;;;;;;;1.00;1.00;;;29.30;99.90;;;;;;5063390;28;20218;-63
2022/07/28 11:41:55;;;;;;;1.20;1.10;;;29.10;99.90;;;;;;5062486;28;20293;-61
2022/07/28 11:44:28;;;;;;;1.30;1.20;;;29.20;99.90;;;;;;5062655;28;20204;-61
2022/07/28 11:47:15;;;;;;;0.82;0.82;;;29.10;99.90;;;;;;5063573;28;20626;-62
2022/07/28 11:49:42;;;;;;;1.13;1.10;;;29.50;99.90;;;;;;5053709;28;20306;-61
2022/07/28 11:52:14;;;;;;;1.17;1.15;;;29.60;99.90;;;;;;5060712;28;20233;-61
2022/07/28 11:54:42;;;;;;;1.60;1.23;;;29.80;99.90;;;;;;5063449;28;20199;-62
2022/07/28 11:57:10;;;;;;;1.05;1.02;;;30.10;99.90;;;;;;5062430;28;20211;-61
2022/07/28 11:59:46;;;;;;;1.00;1.00;;;29.90;99.90;;;;;;5062936;28;20272;-63
2022/07/28 12:02:18;;;;;;;1.30;0.90;;;29.80;99.90;;;;;;5061720;28;20285;-61
2022/07/28 12:04:45;;;;;;;1.00;1.00;;;30.00;99.90;;;;;;5058982;28;20297;-61
2022/07/28 12:07:13;;;;;;;1.48;1.05;;;30.10;99.90;;;;;;5055191;28;20200;-61
2022/07/28 12:09:40;;;;;;;1.27;1.17;;;30.30;99.90;;;;;;5062269;28;20607;-63
2022/07/28 12:12:08;;;;;;;1.33;1.23;;;30.40;99.90;;;;;;5070259;28;20261;-61
2022/07/28 12:14:39;;;;;;;3.53;1.30;;;30.60;99.90;;;;;;5064756;28;20213;-62
2022/07/28 12:17:08;;;;;;;2.05;0.95;;;30.80;99.90;;;;;;5067181;28;20290;-63
2022/07/28 12:19:35;;;;;;;1.15;1.10;;;30.60;99.90;;;;;;5059841;28;20224;-63
2022/07/28 12:22:02;;;;;;;1.15;1.15;;;30.70;99.90;;;;;;5061893;28;20236;-62
2022/07/28 12:24:31;;;;;;;1.33;1.23;;;30.80;99.90;;;;;;5047617;28;20202;-62
2022/07/28 12:26:59;;;;;;;1.10;1.10;;;30.80;99.90;;;;;;5061587;28;20207;-61
2022/07/28 12:29:30;;;;;;;0.90;0.90;;;31.00;99.90;;;;;;5060453;28;20863;-63
2022/07/28 12:31:58;;;;;;;1.45;1.20;;;31.20;99.90;;;;;;5059431;28;20220;-63
2022/07/28 12:34:27;;;;;;;1.20;1.10;;;31.30;99.90;;;;;;5062789;28;20199;-61
2022/07/28 12:36:55;;;;;;;1.55;1.27;;;30.90;99.90;;;;;;5064154;28;20207;-62
2022/07/28 12:39:24;;;;;;;2.08;1.23;;;30.90;99.90;;;;;;5065681;28;20224;-62
2022/07/28 12:42:02;;;;;;;1.38;1.00;;;30.80;99.90;;;;;;5062715;28;20223;-63
2022/07/28 12:44:39;;;;;;;1.10;1.10;;;30.70;99.90;;;;;;5051094;28;20711;-62
2022/07/28 12:47:08;;;;;;;0.90;0.90;;;31.00;99.90;;;;;;5062805;28;20771;-63
2022/07/28 12:49:37;;;;;;;1.35;1.10;;;31.20;99.90;;;;;;5063361;28;20358;-61
2022/07/28 12:52:18;;;;;;;1.30;1.25;;;31.50;99.90;;;;;;5062525;28;20563;-61
2022/07/28 12:54:45;;;;;;;1.20;1.10;;;31.70;99.90;;;;;;5054321;28;20212;-61
2022/07/28 12:57:12;;;;;;;1.90;1.23;;;31.70;99.90;;;;;;5053325;28;20227;-62
2022/07/28 12:59:39;;;;;;;0.90;0.90;;;31.70;99.90;;;;;;5065022;28;20223;-62
2022/07/28 13:02:07;;;;;;;1.88;1.08;;;31.70;99.90;;;;;;5066458;28;20223;-63